Post Falls, Idaho
Current Conditions -  °F | °C
As of 4:55 PM on Monday 24 Nov 2014 (Local Time) from KCOE Reporting Station
Overcast Overcast  
Wind Chill: 31°   Ceiling: 6500
Heat Index: 37°   Visibility: 10mi
Dew Point: 30°   Wind: 8mph
Humidity: 75%   Direction: 170°S
Pressure: 30.2"   Gusts: NA
Location:  47.71°N, 116.94°W
Report Text: KCOE 250055Z AUTO 17007KT 10SM SCT040 BKN065 OVC075 03/M01 A3020 RMK AO1
Loading
Personal Weather Stations






























Interactive Weather Map New forecast layout! Learn more

10-Day Weather Forecast

Advertisements
Track Severe Weather on mobile